Capistrano Beach, California
Current Conditions -  °F | °C
As of 11:56 AM on Monday 22 Dec 2014 (Local Time) from KNXF Reporting Station
Haze Haze  
Wind Chill: 65°   Ceiling: Unl
Heat Index: 65°   Visibility: 6mi
Dew Point: 56°   Wind: 6mph
Humidity: 73%   Direction: 260°W
Pressure: 30"   Gusts: NA
Location:  33.46°N, 117.68°W
Report Text: KNXF 221956Z AUTO 26005KT 6SM HZ CLR 18/13 A3000 RMK AO2 SLP243 T01830133 $
Loading
Personal Weather Stations






























Interactive Weather Map New forecast layout! Learn more

10-Day Weather Forecast

Advertisements
Track Severe Weather on mobile